Portada
METAR-TAF:

METAR-TAF

Aeropuertos :

Aeropuerto de Almería

Almería, España

latitud: 36-51N, longitud: 002-23W, altitud: 15 m

Observación

El informe se hizo hace 32 minutos, a las 08:30 UTC
Viento 3 kt del norte-noroeste
Temperatura 13°C
Humedad 54%
Presión 1032 hPa
Visibilidad 10 km o más
Escasas nubes a una altura de 2000 ft

METAR: LEAM 220830Z 33003KT 9999 FEW020 13/04 Q1032

Hora: 10:02 (09:02 UTC)

Pronóstico

El informe se hizo hace 1 hora y 2 minutos, a las 08:00 UTC
Pronóstico válido del 22 a las 09 UTC al 23 a las 09 UTC
Viento 6 kt del norte
Visibilidad 10 km o más
sin nubes por debajo de 1500 m y sin presencia de cumulonimbus.
Evolucionando progresivamente
del 22 a las 10 UTC al 22 a las 12 UTC
Viento 10 kt del sur-suroeste
Evolucionando progresivamente
del 22 a las 17 UTC al 22 a las 19 UTC
Viento 4 kt del norte

TAF: LEAM 220800Z 2209/2309 01006KT CAVOK TX18/2213Z TN06/2306Z BECMG 2210/2212 20010KT BECMG 2217/2219 35004KT

Observaciones y pronósticos meteorológicos de más de 4000 aeropuertos (mensajes METAR y TAF).

Los puntos amarillos y rojos representan las estaciones disponibles.

Ponga el ratón en el punto deseado para ver el nombre de la estación.

Haga clic para ver las observaciones y los pronósticos meteorológicos.

Para cambiar el mapa : haga clic en los botones verdes con una cruz de color negro para hacer un zoom, en el botón verde con un guión para alejar o en las flechas verdes para mapas adyacentes.


METAR-TAF: